Time;durP1;ratioP1;P1;durP2;ratioP2;P2;SDS_P1;SDS_P2;PMS_P1;PMS_P2;Temp;Humidity;BMP_temperature;BMP_pressure;BME280_temperature;BME280_humidity;BME280_pressure;Samples;Min_cycle;Max_cycle;Signal;HPM_P1;HPM_P2
2021/06/27 00:01:05;;;;;;;;;;;16.70;99.90;;;;;;5012208;28;20489;-50
2021/06/27 00:03:30;;;;;;;;;;;16.60;99.90;;;;;;5030640;28;20004;-53
2021/06/27 00:05:56;;;;;;;;;;;16.60;99.90;;;;;;5030463;28;19913;-51
2021/06/27 00:08:21;;;;;;;;;;;16.60;99.90;;;;;;5030510;28;19932;-56
2021/06/27 00:10:47;;;;;;;;;;;16.50;99.90;;;;;;5030440;28;19933;-55
2021/06/27 00:13:13;;;;;;;;;;;16.50;99.90;;;;;;5030341;28;19963;-55
2021/06/27 00:15:40;;;;;;;;;;;16.50;99.90;;;;;;5019734;28;19909;-51
2021/06/27 00:18:06;;;;;;;;;;;16.50;99.90;;;;;;5030524;28;20383;-55
2021/06/27 00:20:32;;;;;;;;;;;16.40;99.90;;;;;;5030804;28;20437;-56
2021/06/27 00:22:58;;;;;;;;;;;16.40;99.90;;;;;;5030441;28;19913;-54
2021/06/27 00:25:26;;;;;;;;;;;16.40;99.90;;;;;;5030468;28;19963;-52
2021/06/27 00:27:51;;;;;;;;;;;16.40;99.90;;;;;;5030402;28;20279;-51
2021/06/27 00:30:18;;;;;;;;;;;16.40;99.90;;;;;;5030391;28;19913;-52
2021/06/27 00:32:44;;;;;;;;;;;16.30;99.90;;;;;;5030279;28;19978;-51
2021/06/27 00:35:10;;;;;;;;;;;16.30;99.90;;;;;;5029907;28;20427;-51
2021/06/27 00:37:36;;;;;;;;;;;16.30;99.90;;;;;;5030440;28;20006;-57
2021/06/27 00:40:05;;;;;;;;;;;16.30;99.90;;;;;;5030188;28;19956;-53
2021/06/27 00:42:30;;;;;;;;;;;16.20;99.90;;;;;;5027969;28;20295;-55
2021/06/27 00:44:56;;;;;;;;;;;16.20;99.90;;;;;;5029771;28;19916;-52
2021/06/27 00:47:25;;;;;;;;;;;16.20;99.90;;;;;;5030391;28;20468;-48
2021/06/27 00:49:51;;;;;;;;;;;16.10;99.90;;;;;;5012350;28;19916;-55
2021/06/27 00:52:16;;;;;;;;;;;16.10;99.90;;;;;;5030095;28;19916;-48
2021/06/27 00:54:42;;;;;;;;;;;16.10;99.90;;;;;;5029934;28;19996;-52
2021/06/27 00:57:08;;;;;;;;;;;16.10;99.90;;;;;;5012099;28;19920;-54
2021/06/27 00:59:33;;;;;;;;;;;16.00;99.90;;;;;;5027444;28;19952;-55
2021/06/27 01:01:58;;;;;;;;;;;16.10;99.90;;;;;;5027594;28;19960;-53
2021/06/27 01:04:24;;;;;;;;;;;16.00;99.90;;;;;;5010806;28;19909;-53
2021/06/27 01:06:50;;;;;;;;;;;16.00;99.90;;;;;;5029740;28;19985;-55
2021/06/27 01:09:15;;;;;;;;;;;16.00;99.90;;;;;;5029882;28;19913;-56
2021/06/27 01:11:40;;;;;;;;;;;16.00;99.90;;;;;;5030155;28;20291;-51
2021/06/27 01:14:06;;;;;;;;;;;16.00;99.90;;;;;;5029698;28;19963;-54
2021/06/27 01:16:31;;;;;;;;;;;16.00;99.90;;;;;;5028249;28;20001;-53
2021/06/27 01:18:57;;;;;;;;;;;16.00;99.90;;;;;;5030101;28;19928;-51
2021/06/27 01:21:22;;;;;;;;;;;16.00;99.90;;;;;;5029910;28;19909;-52
2021/06/27 01:23:48;;;;;;;;;;;16.00;99.90;;;;;;5030550;28;19913;-54
2021/06/27 01:26:13;;;;;;;;;;;15.90;99.90;;;;;;5033400;28;19909;-55
2021/06/27 01:28:39;;;;;;;;;;;15.90;99.90;;;;;;5033550;28;19937;-48
2021/06/27 01:31:05;;;;;;;;;;;15.90;99.90;;;;;;5033378;28;20022;-54
2021/06/27 01:33:31;;;;;;;;;;;15.80;99.90;;;;;;5030915;28;19924;-52
2021/06/27 01:35:56;;;;;;;;;;;15.80;99.90;;;;;;5015398;28;20078;-50
2021/06/27 01:38:22;;;;;;;;;;;15.80;99.90;;;;;;5033531;28;19915;-53
2021/06/27 01:40:47;;;;;;;;;;;15.70;99.90;;;;;;5033124;28;19913;-50
2021/06/27 01:43:14;;;;;;;;;;;15.70;99.90;;;;;;5033298;28;19909;-53
2021/06/27 01:45:43;;;;;;;;;;;15.60;99.90;;;;;;5032014;28;19952;-56
2021/06/27 01:48:09;;;;;;;;;;;15.60;99.90;;;;;;5033952;28;19956;-53
2021/06/27 01:50:35;;;;;;;;;;;15.60;99.90;;;;;;5033263;28;19913;-55
2021/06/27 01:53:01;;;;;;;;;;;15.50;99.90;;;;;;5031912;28;19916;-53
2021/06/27 01:55:27;;;;;;;;;;;15.50;99.90;;;;;;5026328;28;20380;-56
2021/06/27 01:57:53;;;;;;;;;;;15.50;99.90;;;;;;5033135;28;19913;-54
2021/06/27 02:00:20;;;;;;;;;;;15.50;99.90;;;;;;5033146;28;19916;-57
2021/06/27 02:02:45;;;;;;;;;;;15.40;99.90;;;;;;5033229;28;20326;-52
2021/06/27 02:05:11;;;;;;;;;;;15.40;99.90;;;;;;5032806;28;19956;-52
2021/06/27 02:07:38;;;;;;;;;;;15.40;99.90;;;;;;5032828;28;19916;-55
2021/06/27 02:10:07;;;;;;;;;;;15.30;99.90;;;;;;5032963;28;19913;-54
2021/06/27 02:12:32;;;;;;;;;;;15.40;99.90;;;;;;5029211;28;19909;-49
2021/06/27 02:14:58;;;;;;;;;;;15.40;99.90;;;;;;5032909;28;19917;-53
2021/06/27 02:17:23;;;;;;;;;;;15.30;99.90;;;;;;5032860;28;19913;-53
2021/06/27 02:19:51;;;;;;;;;;;15.30;99.90;;;;;;5033059;28;19909;-52
2021/06/27 02:22:17;;;;;;;;;;;15.30;99.90;;;;;;5025561;28;20055;-51
2021/06/27 02:24:43;;;;;;;;;;;15.30;99.90;;;;;;5032513;28;19952;-51
2021/06/27 02:27:08;;;;;;;;;;;15.30;99.90;;;;;;5032458;28;19909;-52
2021/06/27 02:29:33;;;;;;;;;;;15.30;99.90;;;;;;5032517;28;19979;-57
2021/06/27 02:31:59;;;;;;;;;;;15.30;99.90;;;;;;5032741;28;20310;-50
2021/06/27 02:34:25;;;;;;;;;;;15.20;99.90;;;;;;5031830;28;19956;-55
2021/06/27 02:36:50;;;;;;;;;;;15.20;99.90;;;;;;5032506;28;20356;-54
2021/06/27 02:39:16;;;;;;;;;;;15.20;99.90;;;;;;5014753;28;19909;-57
2021/06/27 02:41:41;;;;;;;;;;;15.20;99.90;;;;;;5032145;28;20299;-50
2021/06/27 02:44:07;;;;;;;;;;;15.20;99.90;;;;;;5032480;28;19953;-52
2021/06/27 02:46:32;;;;;;;;;;;15.20;99.90;;;;;;5032278;28;19915;-54
2021/06/27 02:48:58;;;;;;;;;;;15.20;99.90;;;;;;5032368;28;19980;-56
2021/06/27 02:51:24;;;;;;;;;;;15.20;99.90;;;;;;5032346;28;19970;-49
2021/06/27 02:53:49;;;;;;;;;;;15.20;99.90;;;;;;5032029;28;19909;-53
2021/06/27 02:56:15;;;;;;;;;;;15.20;99.90;;;;;;5023824;28;20321;-54
2021/06/27 02:58:42;;;;;;;;;;;15.20;99.90;;;;;;5031876;28;19910;-55
2021/06/27 03:01:08;;;;;;;;;;;15.20;99.90;;;;;;5031961;28;19920;-53
2021/06/27 03:03:34;;;;;;;;;;;15.20;99.90;;;;;;5014084;28;20036;-52
2021/06/27 03:06:00;;;;;;;;;;;15.20;99.90;;;;;;5031757;28;19991;-54
2021/06/27 03:08:26;;;;;;;;;;;15.30;99.90;;;;;;5031827;28;20062;-49
2021/06/27 03:10:51;;;;;;;;;;;15.30;99.90;;;;;;5031149;28;20294;-52
2021/06/27 03:13:17;;;;;;;;;;;15.30;99.90;;;;;;5031713;28;19913;-57
2021/06/27 03:15:42;;;;;;;;;;;15.40;99.90;;;;;;5031702;28;19983;-49
2021/06/27 03:18:08;;;;;;;;;;;15.40;99.90;;;;;;5031748;28;20449;-55
2021/06/27 03:20:33;;;;;;;;;;;15.40;99.90;;;;;;5031601;28;19909;-52
2021/06/27 03:22:59;;;;;;;;;;;15.40;99.90;;;;;;5031565;28;20409;-53
2021/06/27 03:25:28;;;;;;;;;;;15.40;99.90;;;;;;5031361;28;19915;-54
2021/06/27 03:27:54;;;;;;;;;;;15.50;99.90;;;;;;5031284;28;19951;-53
2021/06/27 03:30:20;;;;;;;;;;;15.50;99.90;;;;;;5031365;28;19913;-53
2021/06/27 03:32:46;;;;;;;;;;;15.50;99.90;;;;;;5031113;28;20004;-56
2021/06/27 03:35:11;;;;;;;;;;;15.60;99.90;;;;;;5030912;28;19909;-49
2021/06/27 03:37:48;;;;;;;;;;;15.60;99.90;;;;;;5031300;28;19909;-51
2021/06/27 03:40:15;;;;;;;;;;;15.60;99.90;;;;;;5031152;28;19909;-56
2021/06/27 03:42:40;;;;;;;;;;;15.70;99.90;;;;;;5031056;28;20493;-52
2021/06/27 03:45:06;;;;;;;;;;;15.70;99.90;;;;;;5030634;28;20034;-59
2021/06/27 03:47:32;;;;;;;;;;;15.70;99.90;;;;;;5030656;28;19972;-58
2021/06/27 03:49:57;;;;;;;;;;;15.70;99.90;;;;;;5013317;28;19964;-48
2021/06/27 03:52:23;;;;;;;;;;;15.80;99.90;;;;;;5030899;28;19971;-50
2021/06/27 03:54:48;;;;;;;;;;;15.80;99.90;;;;;;5030925;28;19909;-55
2021/06/27 03:57:14;;;;;;;;;;;15.90;99.90;;;;;;5013014;28;19909;-53
2021/06/27 03:59:39;;;;;;;;;;;15.90;99.90;;;;;;5030994;28;19909;-55
2021/06/27 04:02:05;;;;;;;;;;;15.90;99.90;;;;;;5030473;28;19936;-54
2021/06/27 04:04:30;;;;;;;;;;;16.00;99.90;;;;;;5030581;28;20260;-54
2021/06/27 04:06:56;;;;;;;;;;;16.00;99.90;;;;;;5030569;28;19913;-51
2021/06/27 04:09:21;;;;;;;;;;;16.10;99.90;;;;;;5030676;28;19967;-52
2021/06/27 04:11:47;;;;;;;;;;;16.10;99.90;;;;;;5030831;28;19909;-55
2021/06/27 04:14:12;;;;;;;;;;;16.20;99.90;;;;;;5030603;28;20240;-49
2021/06/27 04:16:37;;;;;;;;;;;16.20;99.90;;;;;;5030591;28;19913;-49
2021/06/27 04:19:03;;;;;;;;;;;16.20;99.90;;;;;;5030109;28;20441;-56
2021/06/27 04:21:28;;;;;;;;;;;16.20;99.90;;;;;;5030664;28;20007;-49
2021/06/27 04:23:54;;;;;;;;;;;16.30;99.90;;;;;;5012628;28;20422;-52
2021/06/27 04:26:19;;;;;;;;;;;16.30;99.90;;;;;;5030332;28;19909;-53
2021/06/27 04:28:45;;;;;;;;;;;16.40;99.90;;;;;;5030367;28;19913;-53
2021/06/27 04:31:10;;;;;;;;;;;16.40;99.90;;;;;;5012597;28;20388;-52
2021/06/27 04:33:36;;;;;;;;;;;16.50;99.90;;;;;;5030288;28;19971;-51
2021/06/27 04:36:01;;;;;;;;;;;16.50;99.90;;;;;;5029858;28;20395;-54
2021/06/27 04:38:27;;;;;;;;;;;16.50;99.90;;;;;;5030327;28;19909;-51
2021/06/27 04:40:53;;;;;;;;;;;16.60;99.90;;;;;;5030143;28;19998;-50
2021/06/27 04:43:19;;;;;;;;;;;16.60;99.90;;;;;;5030184;28;19915;-52
2021/06/27 04:45:44;;;;;;;;;;;16.70;99.90;;;;;;5030249;28;19956;-53
2021/06/27 04:48:10;;;;;;;;;;;16.80;99.90;;;;;;5030243;28;20012;-56
2021/06/27 04:50:37;;;;;;;;;;;16.90;99.90;;;;;;5029684;28;19913;-56
2021/06/27 04:53:02;;;;;;;;;;;16.90;99.90;;;;;;5030404;28;19920;-52
2021/06/27 04:55:28;;;;;;;;;;;16.90;99.90;;;;;;5029897;28;19913;-57
2021/06/27 04:57:53;;;;;;;;;;;17.00;99.90;;;;;;5030821;28;19909;-54
2021/06/27 05:00:19;;;;;;;;;;;17.00;99.90;;;;;;5034022;28;20005;-51
2021/06/27 05:02:44;;;;;;;;;;;17.10;99.90;;;;;;5034266;28;19932;-53
2021/06/27 05:05:10;;;;;;;;;;;17.10;99.90;;;;;;5015874;28;19944;-51
2021/06/27 05:07:36;;;;;;;;;;;17.10;99.90;;;;;;5034054;28;19913;-51
2021/06/27 05:10:02;;;;;;;;;;;17.20;99.90;;;;;;5034087;28;19919;-48
2021/06/27 05:12:27;;;;;;;;;;;17.30;99.90;;;;;;5033047;28;19976;-53
2021/06/27 05:14:53;;;;;;;;;;;17.40;99.90;;;;;;5016409;28;19916;-52
2021/06/27 05:17:19;;;;;;;;;;;17.40;99.90;;;;;;5033877;28;19913;-52
2021/06/27 05:19:45;;;;;;;;;;;17.50;99.90;;;;;;5069893;22;19925;-61
2021/06/27 05:22:10;;;;;;;;;;;17.50;99.90;;;;;;5053510;28;19966;-59
2021/06/27 05:24:36;;;;;;;;;;;17.60;99.90;;;;;;5053387;28;19908;-56
2021/06/27 05:27:01;;;;;;;;;;;17.60;99.90;;;;;;5036779;28;20336;-58
2021/06/27 05:29:27;;;;;;;;;;;17.60;99.90;;;;;;5051874;28;20406;-59
2021/06/27 05:31:52;;;;;;;;;;;17.60;99.90;;;;;;5053625;28;20375;-57
2021/06/27 05:34:18;;;;;;;;;;;17.60;99.90;;;;;;5053016;28;19908;-57
2021/06/27 05:36:43;;;;;;;;;;;17.70;99.90;;;;;;5053255;28;19908;-58
2021/06/27 05:39:10;;;;;;;;;;;17.80;99.90;;;;;;5053066;28;20315;-57
2021/06/27 05:41:36;;;;;;;;;;;17.90;99.90;;;;;;5053351;28;19944;-58
2021/06/27 05:44:06;;;;;;;;;;;17.90;99.90;;;;;;5053301;28;20456;-59
2021/06/27 05:46:32;;;;;;;;;;;18.00;99.90;;;;;;5053347;28;19909;-60
2021/06/27 05:48:57;;;;;;;;;;;18.10;99.90;;;;;;5053286;28;20016;-58
2021/06/27 05:51:23;;;;;;;;;;;18.20;99.90;;;;;;5053239;28;19951;-58
2021/06/27 05:53:48;;;;;;;;;;;18.30;99.90;;;;;;5053237;28;19909;-59
2021/06/27 05:56:16;;;;;;;;;;;18.30;99.90;;;;;;5053310;28;19995;-58
2021/06/27 05:58:43;;;;;;;;;;;18.40;99.90;;;;;;5052802;28;19909;-60
2021/06/27 06:01:09;;;;;;;;;;;18.50;99.90;;;;;;5052810;28;19915;-60
2021/06/27 06:03:35;;;;;;;;;;;18.70;99.90;;;;;;5052903;28;19956;-59
2021/06/27 06:06:01;;;;;;;;;;;18.80;99.90;;;;;;5052838;28;19948;-56
2021/06/27 06:08:26;;;;;;;;;;;18.90;99.90;;;;;;5052909;28;20314;-58
2021/06/27 06:10:52;;;;;;;;;;;19.00;99.90;;;;;;5051814;28;19916;-59
2021/06/27 06:13:17;;;;;;;;;;;19.10;99.90;;;;;;5053000;28;19909;-57
2021/06/27 06:15:43;;;;;;;;;;;19.30;99.90;;;;;;5052716;28;20008;-59
2021/06/27 06:18:08;;;;;;;;;;;19.40;99.90;;;;;;5052915;28;19916;-60
2021/06/27 06:20:34;;;;;;;;;;;19.50;99.90;;;;;;5052415;28;19993;-59
2021/06/27 06:23:00;;;;;;;;;;;19.60;99.90;;;;;;5052705;28;20428;-58
2021/06/27 06:25:25;;;;;;;;;;;19.70;99.90;;;;;;5052677;28;19916;-56
2021/06/27 06:27:50;;;;;;;;;;;19.90;99.90;;;;;;5052280;28;19959;-58
2021/06/27 06:30:16;;;;;;;;;;;20.10;99.90;;;;;;5052452;28;19913;-58
2021/06/27 06:32:42;;;;;;;;;;;20.30;99.90;;;;;;5052472;28;20002;-59
2021/06/27 06:35:07;;;;;;;;;;;20.50;99.90;;;;;;5052235;28;20302;-59
2021/06/27 06:37:33;;;;;;;;;;;20.70;99.90;;;;;;5052428;28;19962;-59
2021/06/27 06:39:58;;;;;;;;;;;20.70;99.90;;;;;;5034636;28;19916;-60
2021/06/27 06:42:24;;;;;;;;;;;20.80;99.90;;;;;;5052488;28;19909;-60
2021/06/27 06:44:49;;;;;;;;;;;20.90;99.90;;;;;;5052271;28;19912;-60
2021/06/27 06:47:15;;;;;;;;;;;21.00;99.90;;;;;;5052697;28;20271;-59
2021/06/27 06:49:40;;;;;;;;;;;21.30;99.90;;;;;;5052123;28;19924;-60
2021/06/27 06:52:06;;;;;;;;;;;21.40;99.90;;;;;;5051942;28;19908;-59
2021/06/27 06:54:32;;;;;;;;;;;21.40;99.90;;;;;;5052462;28;19924;-56
2021/06/27 06:56:57;;;;;;;;;;;21.20;99.90;;;;;;5052041;28;19909;-60
2021/06/27 06:59:23;;;;;;;;;;;21.30;99.90;;;;;;5052042;28;20375;-58
2021/06/27 07:01:48;;;;;;;;;;;21.50;99.90;;;;;;5033990;28;20107;-59
2021/06/27 07:04:14;;;;;;;;;;;21.60;99.90;;;;;;5051791;28;20402;-59
2021/06/27 07:06:40;;;;;;;;;;;21.90;99.90;;;;;;5051747;28;19908;-58
2021/06/27 07:09:05;;;;;;;;;;;22.00;99.90;;;;;;5051750;28;19909;-59
2021/06/27 07:11:30;;;;;;;;;;;22.10;99.90;;;;;;5051938;28;20413;-58
2021/06/27 07:13:56;;;;;;;;;;;22.30;99.90;;;;;;5051836;28;20375;-60
2021/06/27 07:16:21;;;;;;;;;;;22.40;99.90;;;;;;5051768;28;19932;-55
2021/06/27 07:18:47;;;;;;;;;;;22.40;99.90;;;;;;5051532;28;20298;-59
2021/06/27 07:21:13;;;;;;;;;;;22.30;99.90;;;;;;5051001;28;20343;-60
2021/06/27 07:23:38;;;;;;;;;;;22.30;99.90;;;;;;5033633;28;19920;-61
2021/06/27 07:26:04;;;;;;;;;;;22.40;99.90;;;;;;5051224;28;20155;-59
2021/06/27 07:28:31;;;;;;;;;;;22.40;99.90;;;;;;5051731;28;20303;-58
2021/06/27 07:30:57;;;;;;;;;;;22.60;99.90;;;;;;5051390;28;19917;-57
2021/06/27 07:33:23;;;;;;;;;;;22.70;99.90;;;;;;5050972;28;20381;-58
2021/06/27 07:35:49;;;;;;;;;;;22.80;99.90;;;;;;5051258;28;19908;-59
2021/06/27 07:38:14;;;;;;;;;;;23.00;99.90;;;;;;5051230;28;20452;-58
2021/06/27 07:40:40;;;;;;;;;;;23.30;99.90;;;;;;5051311;28;19908;-57
2021/06/27 07:43:05;;;;;;;;;;;23.50;99.90;;;;;;5051319;28;19912;-58
2021/06/27 07:45:31;;;;;;;;;;;23.70;99.90;;;;;;5051231;28;19916;-59
2021/06/27 07:47:56;;;;;;;;;;;23.70;99.90;;;;;;5051157;28;19913;-60
2021/06/27 07:50:22;;;;;;;;;;;23.80;99.90;;;;;;5050830;28;19916;-59
2021/06/27 07:52:47;;;;;;;;;;;24.00;99.90;;;;;;5050761;28;19909;-59
2021/06/27 07:55:13;;;;;;;;;;;23.90;99.90;;;;;;5050821;28;19913;-59
2021/06/27 07:57:39;;;;;;;;;;;24.10;99.90;;;;;;5050857;28;19909;-57
2021/06/27 08:00:06;;;;;;;;;;;24.20;99.90;;;;;;5050511;28;19908;-60
2021/06/27 08:02:31;;;;;;;;;;;24.50;99.90;;;;;;5050912;28;20006;-60
2021/06/27 08:04:57;;;;;;;;;;;24.60;99.90;;;;;;5050460;28;19968;-61
2021/06/27 08:07:22;;;;;;;;;;;24.70;99.90;;;;;;5050656;28;19916;-59
2021/06/27 08:09:48;;;;;;;;;;;25.00;99.90;;;;;;5050442;28;19912;-61
2021/06/27 08:12:13;;;;;;;;;;;24.90;99.90;;;;;;5050633;28;19908;-60
2021/06/27 08:14:38;;;;;;;;;;;24.90;99.90;;;;;;5050787;28;19915;-61
2021/06/27 08:17:06;;;;;;;;;;;24.70;99.90;;;;;;5050544;28;20000;-60
2021/06/27 08:19:31;;;;;;;;;;;24.70;99.90;;;;;;5050514;28;19975;-59
2021/06/27 08:21:57;;;;;;;;;;;24.70;99.90;;;;;;5050721;28;19908;-61
2021/06/27 08:24:22;;;;;;;;;;;24.70;99.80;;;;;;5050188;28;19908;-58
2021/06/27 08:26:49;;;;;;;;;;;24.90;99.50;;;;;;5050506;28;20004;-59
2021/06/27 08:29:15;;;;;;;;;;;25.00;99.90;;;;;;5047116;28;19913;-61
2021/06/27 08:31:40;;;;;;;;;;;25.30;99.90;;;;;;5050412;28;19935;-61
2021/06/27 08:34:06;;;;;;;;;;;25.40;99.90;;;;;;5049727;28;19962;-60
2021/06/27 08:36:31;;;;;;;;;;;25.60;99.90;;;;;;5050056;28;20302;-60
2021/06/27 08:38:57;;;;;;;;;;;25.80;99.90;;;;;;5050215;28;19920;-60
2021/06/27 08:41:22;;;;;;;;;;;26.10;99.10;;;;;;5032064;28;20333;-61
2021/06/27 08:43:48;;;;;;;;;;;26.20;99.50;;;;;;5050619;28;19909;-59
2021/06/27 08:46:14;;;;;;;;;;;26.40;98.20;;;;;;5050217;28;19908;-59
2021/06/27 08:48:41;;;;;;;;;;;26.50;99.60;;;;;;5050153;28;19908;-62
2021/06/27 08:51:08;;;;;;;;;;;26.70;99.40;;;;;;5049877;28;19920;-59
2021/06/27 08:53:34;;;;;;;;;;;26.80;98.60;;;;;;5050093;28;19931;-59
2021/06/27 08:56:07;;;;;;;;;;;26.40;97.30;;;;;;5049963;28;19916;-59
2021/06/27 08:58:33;;;;;;;;;;;26.10;98.10;;;;;;5050083;28;20275;-58
2021/06/27 09:00:59;;;;;;;;;;;26.10;98.70;;;;;;5050104;28;19924;-58
2021/06/27 09:03:25;;;;;;;;;;;26.00;97.60;;;;;;5049981;28;19909;-58
2021/06/27 09:05:50;;;;;;;;;;;25.80;98.40;;;;;;5050040;28;19920;-60
2021/06/27 09:08:17;;;;;;;;;;;25.60;98.90;;;;;;5050088;28;19912;-58
2021/06/27 09:10:43;;;;;;;;;;;25.50;97.70;;;;;;5049876;28;19963;-59
2021/06/27 09:13:09;;;;;;;;;;;25.40;98.80;;;;;;5050235;28;19955;-58
2021/06/27 09:15:35;;;;;;;;;;;25.30;98.80;;;;;;5049994;28;19917;-59
2021/06/27 09:18:04;;;;;;;;;;;25.70;99.20;;;;;;5050061;28;19916;-58
2021/06/27 09:20:30;;;;;;;;;;;26.30;99.80;;;;;;5049597;28;19916;-58
2021/06/27 09:22:56;;;;;;;;;;;26.80;97.60;;;;;;5049940;28;19916;-58
2021/06/27 09:25:29;;;;;;;;;;;26.90;96.40;;;;;;5049706;28;19945;-60
2021/06/27 09:28:04;;;;;;;;;;;26.80;96.90;;;;;;5049732;28;20459;-59
2021/06/27 09:30:30;;;;;;;;;;;25.80;96.60;;;;;;5049697;28;19913;-59
2021/06/27 09:32:58;;;;;;;;;;;25.70;98.30;;;;;;5049616;28;20398;-61
2021/06/27 09:35:35;;;;;;;;;;;25.90;99.10;;;;;;5049406;28;19909;-59
2021/06/27 09:38:19;;;;;;;;;;;26.30;97.30;;;;;;5049667;28;20301;-59
2021/06/27 09:40:44;;;;;;;;;;;26.00;97.00;;;;;;5049567;28;19921;-60
2021/06/27 09:43:10;;;;;;;;;;;26.40;97.40;;;;;;5049676;28;19917;-60
2021/06/27 09:45:49;;;;;;;;;;;26.30;97.70;;;;;;5051621;28;19909;-59
2021/06/27 09:48:15;;;;;;;;;;;26.30;99.40;;;;;;5048741;28;19999;-59
2021/06/27 09:50:41;;;;;;;;;;;26.50;96.10;;;;;;5053088;28;20450;-59
2021/06/27 09:53:26;;;;;;;;;;;26.60;97.10;;;;;;5053455;28;19944;-61
2021/06/27 09:55:58;;;;;;;;;;;26.90;96.60;;;;;;5050003;28;20393;-60
2021/06/27 09:58:24;;;;;;;;;;;26.90;95.10;;;;;;5053218;28;19909;-60
2021/06/27 10:00:49;;;;;;;;;;;26.90;95.50;;;;;;5053151;28;19916;-59
2021/06/27 10:03:15;;;;;;;;;;;26.50;96.60;;;;;;5052983;28;20004;-60
2021/06/27 10:05:41;;;;;;;;;;;26.10;95.80;;;;;;5053047;28;19916;-59
2021/06/27 10:08:06;;;;;;;;;;;26.00;97.30;;;;;;5053275;28;19909;-62
2021/06/27 10:10:32;;;;;;;;;;;25.60;96.00;;;;;;5052734;28;20011;-61
2021/06/27 10:12:57;;;;;;;;;;;25.90;98.30;;;;;;5053455;28;19916;-59
2021/06/27 10:15:23;;;;;;;;;;;26.30;96.20;;;;;;5050726;28;20055;-59
2021/06/27 10:17:48;;;;;;;;;;;25.90;96.70;;;;;;5052880;28;19909;-59
2021/06/27 10:20:15;;;;;;;;;;;25.80;96.90;;;;;;5053198;28;19917;-59
2021/06/27 10:22:41;;;;;;;;;;;25.80;97.90;;;;;;5053060;28;19915;-59
2021/06/27 10:25:10;;;;;;;;;;;26.00;96.60;;;;;;5052645;28;19913;-64
2021/06/27 10:27:37;;;;;;;;;;;26.10;95.70;;;;;;5052647;28;19952;-61
2021/06/27 10:30:04;;;;;;;;;;;25.90;96.80;;;;;;5052716;28;20361;-57
2021/06/27 10:32:29;;;;;;;;;;;25.90;96.70;;;;;;5052459;28;19909;-59
2021/06/27 10:34:55;;;;;;;;;;;25.90;97.10;;;;;;5052219;28;19963;-59
2021/06/27 10:37:23;;;;;;;;;;;25.80;96.30;;;;;;5052717;28;20373;-59
2021/06/27 10:40:08;;;;;;;;;;;25.80;97.00;;;;;;5052393;28;19916;-58
2021/06/27 10:42:49;;;;;;;;;;;25.70;97.70;;;;;;5047215;28;19908;-60
2021/06/27 10:45:22;;;;;;;;;;;26.00;95.00;;;;;;5051945;28;19928;-59
2021/06/27 10:47:48;;;;;;;;;;;25.80;95.70;;;;;;5034540;28;20371;-58
2021/06/27 10:50:14;;;;;;;;;;;26.00;96.70;;;;;;5034181;28;19919;-58
2021/06/27 10:52:55;;;;;;;;;;;26.20;96.90;;;;;;5052043;28;19909;-59
2021/06/27 10:55:40;;;;;;;;;;;26.20;96.80;;;;;;5049475;28;19916;-59
2021/06/27 10:58:06;;;;;;;;;;;26.30;96.10;;;;;;5052172;28;19908;-59
2021/06/27 11:00:52;;;;;;;;;;;26.60;97.00;;;;;;5033969;28;20286;-59
2021/06/27 11:03:24;;;;;;;;;;;26.70;95.10;;;;;;5045042;28;19916;-61
2021/06/27 11:05:53;;;;;;;;;;;26.40;93.60;;;;;;5051395;28;20398;-60
2021/06/27 11:08:30;;;;;;;;;;;26.00;93.90;;;;;;5044415;28;19919;-58
2021/06/27 11:11:00;;;;;;;;;;;26.10;94.90;;;;;;5051954;28;19966;-60
2021/06/27 11:13:26;;;;;;;;;;;26.30;94.80;;;;;;5051727;28;19994;-58
2021/06/27 11:15:51;;;;;;;;;;;26.10;95.70;;;;;;5051435;28;20386;-60
2021/06/27 11:18:31;;;;;;;;;;;26.30;95.20;;;;;;5051353;28;20272;-60
2021/06/27 11:20:56;;;;;;;;;;;26.60;93.90;;;;;;5073780;22;20105;-53
2021/06/27 11:23:41;;;;;;;;;;;26.90;94.40;;;;;;5051556;28;20474;-55
2021/06/27 11:26:06;;;;;;;;;;;27.20;90.80;;;;;;5050980;28;19909;-57
2021/06/27 11:28:35;;;;;;;;;;;27.30;91.90;;;;;;5051369;28;19915;-54
2021/06/27 11:31:19;;;;;;;;;;;27.50;92.40;;;;;;5051058;28;19946;-59
2021/06/27 11:33:45;;;;;;;;;;;27.60;92.80;;;;;;5029350;28;20287;-55
2021/06/27 11:36:25;;;;;;;;;;;27.20;91.50;;;;;;5049281;28;19913;-57
2021/06/27 11:38:51;;;;;;;;;;;26.90;92.20;;;;;;5046481;28;19994;-57
2021/06/27 11:41:19;;;;;;;;;;;27.10;93.00;;;;;;5049014;28;19948;-59
2021/06/27 11:43:54;;;;;;;;;;;27.30;92.90;;;;;;5045702;28;19908;-58
2021/06/27 11:46:26;;;;;;;;;;;27.00;88.60;;;;;;5040414;28;19932;-54
2021/06/27 11:48:52;;;;;;;;;;;26.70;89.00;;;;;;5045648;28;20439;-56
2021/06/27 11:51:17;;;;;;;;;;;27.00;91.70;;;;;;5047027;28;19968;-52
2021/06/27 11:53:43;;;;;;;;;;;27.50;91.90;;;;;;5045898;28;19909;-56
2021/06/27 11:56:11;;;;;;;;;;;27.90;92.00;;;;;;5032333;28;19924;-57
2021/06/27 11:58:37;;;;;;;;;;;28.20;90.10;;;;;;5046797;28;19959;-56
2021/06/27 12:01:07;;;;;;;;;;;28.40;87.50;;;;;;5049661;28;19909;-57
2021/06/27 12:03:33;;;;;;;;;;;28.40;90.60;;;;;;5045968;28;19963;-52
2021/06/27 12:06:01;;;;;;;;;;;28.60;89.10;;;;;;5048306;28;19909;-50
2021/06/27 12:08:27;;;;;;;;;;;29.00;89.20;;;;;;5045202;28;19959;-57
2021/06/27 12:10:55;;;;;;;;;;;29.00;87.90;;;;;;5047259;28;19913;-52
2021/06/27 12:13:21;;;;;;;;;;;29.00;87.10;;;;;;5050179;28;19908;-55
2021/06/27 12:15:48;;;;;;;;;;;29.00;86.80;;;;;;5046624;28;20291;-52
2021/06/27 12:18:15;;;;;;;;;;;29.10;87.40;;;;;;5049176;28;20003;-57
2021/06/27 12:20:45;;;;;;;;;;;29.00;86.60;;;;;;5027533;28;19917;-53
2021/06/27 12:23:12;;;;;;;;;;;29.00;85.80;;;;;;5048244;28;19916;-50
2021/06/27 12:25:39;;;;;;;;;;;28.40;84.50;;;;;;5044613;28;19909;-57
2021/06/27 12:28:09;;;;;;;;;;;28.20;83.80;;;;;;5047231;28;19909;-50
2021/06/27 12:30:49;;;;;;;;;;;28.20;87.70;;;;;;5049605;28;19913;-48
2021/06/27 12:33:16;;;;;;;;;;;28.00;86.00;;;;;;5045868;28;20011;-53
2021/06/27 12:35:43;;;;;;;;;;;28.10;87.90;;;;;;5048495;28;20287;-50
2021/06/27 12:38:09;;;;;;;;;;;27.70;83.50;;;;;;5045056;28;19909;-58
2021/06/27 12:40:37;;;;;;;;;;;27.30;87.60;;;;;;5048161;28;19961;-57
2021/06/27 12:43:03;;;;;;;;;;;27.20;87.50;;;;;;5049907;28;19920;-57
2021/06/27 12:45:28;;;;;;;;;;;26.90;86.00;;;;;;5050113;28;19908;-57
2021/06/27 12:47:57;;;;;;;;;;;27.20;87.50;;;;;;5027070;28;20298;-55
2021/06/27 12:50:36;;;;;;;;;;;27.30;88.50;;;;;;5048650;28;19919;-56
2021/06/27 12:53:05;;;;;;;;;;;27.20;86.90;;;;;;5043111;28;19909;-55
2021/06/27 12:55:31;;;;;;;;;;;27.40;88.20;;;;;;5048630;28;19932;-56
2021/06/27 12:57:58;;;;;;;;;;;27.70;86.40;;;;;;5049416;28;20399;-56
2021/06/27 13:00:23;;;;;;;;;;;27.70;86.70;;;;;;5045644;28;19916;-58
2021/06/27 13:02:49;;;;;;;;;;;27.80;85.90;;;;;;5050149;28;19909;-54
2021/06/27 13:05:16;;;;;;;;;;;28.10;85.30;;;;;;5042596;28;19909;-61
2021/06/27 13:07:46;;;;;;;;;;;28.50;85.20;;;;;;5050062;28;19909;-55
2021/06/27 13:10:23;;;;;;;;;;;28.30;83.00;;;;;;5024484;28;19913;-55
2021/06/27 13:13:05;;;;;;;;;;;28.40;81.00;;;;;;5027974;28;19971;-53
2021/06/27 13:15:33;;;;;;;;;;;28.90;84.30;;;;;;5041306;28;19909;-57
2021/06/27 13:18:19;;;;;;;;;;;29.00;83.30;;;;;;5048492;28;20286;-53
2021/06/27 13:20:49;;;;;;;;;;;28.70;82.30;;;;;;5048662;28;20018;-51
2021/06/27 13:23:18;;;;;;;;;;;28.50;81.70;;;;;;5051371;28;20003;-57
2021/06/27 13:25:51;;;;;;;;;;;28.60;82.40;;;;;;5047766;28;20019;-54
2021/06/27 13:28:17;;;;;;;;;;;27.90;80.70;;;;;;5045681;28;19912;-55
2021/06/27 13:30:52;;;;;;;;;;;28.00;82.20;;;;;;5052869;28;19919;-55
2021/06/27 13:33:18;;;;;;;;;;;28.10;79.40;;;;;;5045675;28;19913;-57
2021/06/27 13:35:45;;;;;;;;;;;28.20;80.40;;;;;;5051635;28;19908;-60
2021/06/27 13:38:13;;;;;;;;;;;28.40;79.40;;;;;;5023584;28;19909;-56
2021/06/27 13:40:39;;;;;;;;;;;28.50;76.40;;;;;;5046334;28;19908;-55
2021/06/27 13:43:05;;;;;;;;;;;28.60;77.20;;;;;;5046697;28;19909;-59
2021/06/27 13:45:31;;;;;;;;;;;28.70;79.00;;;;;;5049561;28;19963;-55
2021/06/27 13:47:57;;;;;;;;;;;29.10;81.00;;;;;;5046468;28;19917;-53
2021/06/27 13:50:23;;;;;;;;;;;29.40;78.50;;;;;;5049262;28;20386;-55
2021/06/27 13:52:50;;;;;;;;;;;29.30;77.90;;;;;;5051578;28;19944;-55
2021/06/27 13:55:17;;;;;;;;;;;29.00;76.30;;;;;;5042025;28;19962;-55
2021/06/27 13:57:43;;;;;;;;;;;28.60;78.50;;;;;;5050759;28;19956;-53
2021/06/27 14:00:08;;;;;;;;;;;28.40;80.40;;;;;;5052976;28;20294;-53
2021/06/27 14:02:34;;;;;;;;;;;28.30;80.00;;;;;;5049745;28;19909;-53
2021/06/27 14:05:00;;;;;;;;;;;28.40;81.00;;;;;;5052152;28;20449;-53
2021/06/27 14:07:25;;;;;;;;;;;28.20;77.50;;;;;;5048313;28;19913;-56
2021/06/27 14:09:51;;;;;;;;;;;28.10;76.90;;;;;;5048959;28;19917;-57
2021/06/27 14:12:16;;;;;;;;;;;27.60;81.00;;;;;;5043147;28;19917;-56
2021/06/27 14:14:42;;;;;;;;;;;27.70;78.80;;;;;;5031488;28;19916;-55